Time;durP1;ratioP1;P1;durP2;ratioP2;P2;SDS_P1;SDS_P2;PMS_P1;PMS_P2;Temp;Humidity;BMP_temperature;BMP_pressure;BME280_temperature;BME280_humidity;BME280_pressure;Samples;Min_cycle;Max_cycle;Signal;HPM_P1;HPM_P2
2023/03/07 00:01:29;;;;;;;32.30;16.37;;;4.30;99.90;;;;;;5112153;28;20020;-55
2023/03/07 00:03:56;;;;;;;18.98;9.35;;;4.30;99.90;;;;;;5111952;28;20135;-53
2023/03/07 00:06:22;;;;;;;19.43;10.27;;;4.30;99.90;;;;;;5111678;28;20035;-49
2023/03/07 00:08:53;;;;;;;18.07;9.77;;;4.30;99.90;;;;;;5111914;28;20114;-52
2023/03/07 00:11:18;;;;;;;16.93;9.40;;;4.30;99.90;;;;;;5111924;28;20024;-52
2023/03/07 00:13:44;;;;;;;18.53;9.93;;;4.40;99.90;;;;;;5111706;28;20545;-52
2023/03/07 00:16:13;;;;;;;16.93;9.13;;;4.40;99.90;;;;;;5111861;28;20031;-53
2023/03/07 00:18:40;;;;;;;19.75;10.15;;;4.40;99.90;;;;;;5111627;28;20438;-53
2023/03/07 00:21:09;;;;;;;18.23;9.53;;;4.40;99.90;;;;;;5111727;28;20026;-52
2023/03/07 00:23:37;;;;;;;17.05;9.13;;;4.40;99.90;;;;;;5111778;28;20028;-51
2023/03/07 00:26:24;;;;;;;14.30;9.03;;;4.30;99.90;;;;;;5111349;28;20020;-52
2023/03/07 00:28:52;;;;;;;18.73;9.50;;;4.40;99.90;;;;;;5111096;28;20032;-53
2023/03/07 00:31:19;;;;;;;17.83;9.57;;;4.30;99.90;;;;;;5093443;28;20441;-55
2023/03/07 00:33:45;;;;;;;14.93;9.17;;;4.30;99.90;;;;;;5093151;28;20065;-53
2023/03/07 00:36:17;;;;;;;18.03;9.30;;;4.30;99.90;;;;;;5093232;28;20052;-54
2023/03/07 00:38:43;;;;;;;14.23;8.30;;;4.30;99.90;;;;;;5111391;28;20463;-53
2023/03/07 00:41:12;;;;;;;14.07;7.70;;;4.30;99.90;;;;;;5111713;28;20088;-53
2023/03/07 00:43:39;;;;;;;13.98;8.25;;;4.30;99.90;;;;;;5111302;28;20028;-51
2023/03/07 00:46:05;;;;;;;14.77;8.40;;;4.30;99.90;;;;;;5111355;28;20039;-53
2023/03/07 00:48:37;;;;;;;15.20;8.60;;;4.30;99.90;;;;;;5092812;28;20331;-54
2023/03/07 00:51:04;;;;;;;17.10;8.40;;;4.40;99.90;;;;;;5093122;28;20101;-53
2023/03/07 00:53:29;;;;;;;14.90;8.70;;;4.30;99.90;;;;;;5111107;28;20024;-52
2023/03/07 00:56:08;;;;;;;15.27;8.67;;;4.40;99.90;;;;;;5111686;28;20106;-53
2023/03/07 00:58:35;;;;;;;12.70;7.75;;;4.40;99.90;;;;;;5111395;28;20030;-52
2023/03/07 01:01:02;;;;;;;15.33;8.63;;;4.30;99.90;;;;;;5111397;28;20061;-53
2023/03/07 01:03:29;;;;;;;12.73;7.70;;;4.30;99.90;;;;;;5092700;28;20024;-52
2023/03/07 01:05:55;;;;;;;12.87;7.57;;;4.40;99.90;;;;;;5111361;28;20387;-54
2023/03/07 01:08:22;;;;;;;14.77;8.87;;;4.40;99.90;;;;;;5092571;28;20080;-54
2023/03/07 01:10:49;;;;;;;13.47;8.33;;;4.40;99.90;;;;;;5111062;28;20024;-52
2023/03/07 01:13:17;;;;;;;14.53;8.83;;;4.40;99.90;;;;;;5092805;28;20081;-51
2023/03/07 01:15:43;;;;;;;14.10;8.77;;;4.50;99.90;;;;;;5092829;28;20034;-52
2023/03/07 01:18:10;;;;;;;14.90;9.07;;;4.40;99.90;;;;;;5092694;28;20077;-54
2023/03/07 01:20:37;;;;;;;14.63;8.97;;;4.50;99.90;;;;;;5092874;28;20027;-51
2023/03/07 01:23:04;;;;;;;14.50;8.20;;;4.40;99.90;;;;;;5111034;28;20015;-55
2023/03/07 01:25:30;;;;;;;14.37;8.70;;;4.50;99.90;;;;;;5092517;28;20020;-55
2023/03/07 01:27:57;;;;;;;13.67;7.77;;;4.50;99.90;;;;;;5092636;28;20024;-54
2023/03/07 01:30:26;;;;;;;12.32;8.07;;;4.50;99.90;;;;;;5092850;28;20046;-53
2023/03/07 01:33:00;;;;;;;13.83;7.70;;;4.60;99.90;;;;;;5093002;28;20495;-52
2023/03/07 01:35:27;;;;;;;12.73;7.90;;;4.60;99.90;;;;;;5092678;28;20028;-51
2023/03/07 01:37:55;;;;;;;14.05;7.00;;;4.60;99.90;;;;;;5093330;28;20028;-53
2023/03/07 01:40:22;;;;;;;10.73;6.80;;;4.60;99.90;;;;;;5096919;28;20181;-54
2023/03/07 01:42:49;;;;;;;9.87;6.40;;;4.60;99.90;;;;;;5096982;28;20031;-51
2023/03/07 01:45:15;;;;;;;10.70;6.73;;;4.60;99.90;;;;;;5115073;28;20062;-51
2023/03/07 01:47:43;;;;;;;11.07;5.97;;;4.50;99.90;;;;;;5115038;28;20065;-52
2023/03/07 01:50:15;;;;;;;8.43;5.50;;;4.50;99.90;;;;;;5096897;28;20066;-53
2023/03/07 01:52:46;;;;;;;9.23;5.30;;;4.50;99.90;;;;;;5096677;28;20055;-52
2023/03/07 01:55:22;;;;;;;8.53;5.30;;;4.50;99.90;;;;;;5096663;28;20027;-51
2023/03/07 01:57:53;;;;;;;8.48;4.93;;;4.50;99.90;;;;;;5096545;28;20035;-53
2023/03/07 02:00:28;;;;;;;10.20;5.37;;;4.40;99.90;;;;;;5096653;28;20032;-54
2023/03/07 02:03:09;;;;;;;8.07;5.10;;;4.40;99.90;;;;;;5096549;28;20479;-53
2023/03/07 02:05:44;;;;;;;9.00;5.53;;;4.40;99.90;;;;;;5096131;28;20405;-53
2023/03/07 02:08:13;;;;;;;7.50;4.93;;;4.40;99.90;;;;;;5096037;28;20031;-54
2023/03/07 02:10:40;;;;;;;7.40;4.60;;;4.40;99.90;;;;;;5096175;28;20051;-50
2023/03/07 02:13:06;;;;;;;5.67;4.00;;;4.40;99.90;;;;;;5114545;28;20239;-54
2023/03/07 02:15:35;;;;;;;8.17;3.93;;;4.30;99.90;;;;;;5079028;28;20028;-55
2023/03/07 02:18:03;;;;;;;;;;;4.30;99.90;;;;;;5096420;28;20293;-51
2023/03/07 02:20:44;;;;;;;6.40;3.80;;;4.40;99.90;;;;;;5096162;28;19908;-50
2023/03/07 02:23:22;;;;;;;7.30;3.77;;;4.30;99.90;;;;;;5114331;28;20030;-51
2023/03/07 02:26:10;;;;;;;6.77;4.07;;;4.40;99.90;;;;;;5095954;28;20118;-54
2023/03/07 02:28:38;;;;;;;5.80;3.90;;;4.30;99.90;;;;;;5095485;28;20032;-52
2023/03/07 02:31:06;;;;;;;6.32;3.55;;;4.30;99.90;;;;;;5095854;28;20079;-52
2023/03/07 02:33:35;;;;;;;6.70;4.10;;;4.30;99.90;;;;;;5095494;28;20039;-54
2023/03/07 02:36:10;;;;;;;6.37;3.90;;;4.40;99.90;;;;;;5095511;28;20076;-53
2023/03/07 02:38:42;;;;;;;4.93;3.57;;;4.40;99.90;;;;;;5095118;28;20407;-55
2023/03/07 02:41:11;;;;;;;6.50;4.10;;;4.30;99.90;;;;;;5095655;28;20024;-53
2023/03/07 02:43:37;;;;;;;5.93;3.43;;;4.40;99.90;;;;;;5095236;28;20187;-51
2023/03/07 02:46:04;;;;;;;6.40;3.80;;;4.40;99.90;;;;;;5095514;28;20047;-50
2023/03/07 02:48:30;;;;;;;6.10;3.30;;;4.40;99.90;;;;;;5094531;28;20032;-53
2023/03/07 02:50:56;;;;;;;5.43;3.50;;;4.40;99.90;;;;;;5095290;28;20027;-54
2023/03/07 02:53:22;;;;;;;6.00;3.47;;;4.40;99.90;;;;;;5095099;28;20077;-51
2023/03/07 02:55:48;;;;;;;5.83;3.30;;;4.40;99.90;;;;;;5095549;28;20039;-53
2023/03/07 02:58:14;;;;;;;6.70;3.30;;;4.40;99.90;;;;;;5094883;28;20054;-51
2023/03/07 03:00:40;;;;;;;7.00;3.23;;;4.40;99.90;;;;;;5113427;28;20483;-52
2023/03/07 03:03:06;;;;;;;5.03;3.27;;;4.30;99.90;;;;;;5095244;28;20031;-53
2023/03/07 03:05:32;;;;;;;6.07;3.50;;;4.30;99.90;;;;;;5113013;28;20015;-54
2023/03/07 03:07:58;;;;;;;5.40;3.80;;;4.30;99.90;;;;;;5094840;28;20039;-55
2023/03/07 03:10:24;;;;;;;6.63;3.70;;;4.30;99.90;;;;;;5113263;28;20484;-52
2023/03/07 03:12:49;;;;;;;6.27;3.73;;;4.30;99.90;;;;;;5094995;28;20061;-50
2023/03/07 03:15:15;;;;;;;6.23;3.70;;;4.30;99.90;;;;;;5094751;28;20123;-53
2023/03/07 03:17:42;;;;;;;6.47;3.57;;;4.20;99.90;;;;;;5112852;28;20089;-53
2023/03/07 03:20:10;;;;;;;6.10;3.77;;;4.20;99.90;;;;;;5094693;28;20026;-53
2023/03/07 03:22:39;;;;;;;5.77;3.67;;;4.20;99.90;;;;;;5094771;28;20087;-49
2023/03/07 03:25:08;;;;;;;8.57;4.37;;;4.20;99.90;;;;;;5094504;28;20437;-53
2023/03/07 03:27:36;;;;;;;6.72;4.28;;;4.20;99.90;;;;;;5094393;28;20032;-53
2023/03/07 03:30:04;;;;;;;9.73;5.20;;;4.20;99.90;;;;;;5094381;28;20078;-52
2023/03/07 03:32:32;;;;;;;7.67;4.87;;;4.20;99.90;;;;;;5094245;28;20032;-53
2023/03/07 03:34:58;;;;;;;8.27;4.63;;;4.10;99.90;;;;;;5112415;28;20031;-52
2023/03/07 03:37:24;;;;;;;7.47;4.63;;;4.10;99.90;;;;;;5094157;28;20126;-53
2023/03/07 03:39:53;;;;;;;8.43;5.00;;;4.10;99.90;;;;;;5112705;28;20107;-54
2023/03/07 03:42:19;;;;;;;8.20;4.90;;;4.10;99.90;;;;;;5094296;28;20111;-52
2023/03/07 03:44:45;;;;;;;6.73;4.10;;;4.20;99.90;;;;;;5094035;28;20046;-53
2023/03/07 03:47:11;;;;;;;6.63;3.83;;;4.20;99.90;;;;;;5093702;28;20032;-52
2023/03/07 03:49:37;;;;;;;8.60;5.33;;;4.20;99.90;;;;;;5094083;28;20604;-53
2023/03/07 03:52:03;;;;;;;8.30;5.30;;;4.10;99.90;;;;;;5094204;28;20035;-54
2023/03/07 03:54:30;;;;;;;12.37;7.00;;;4.10;99.90;;;;;;5093857;28;20035;-53
2023/03/07 03:56:56;;;;;;;13.37;7.50;;;4.10;99.90;;;;;;5093905;28;20126;-54
2023/03/07 03:59:22;;;;;;;12.17;6.67;;;4.10;99.90;;;;;;5112300;28;20103;-57
2023/03/07 04:01:49;;;;;;;11.47;5.47;;;4.10;99.90;;;;;;5092892;28;20028;-54
2023/03/07 04:04:16;;;;;;;8.77;4.67;;;4.10;99.90;;;;;;5093701;28;20419;-55
2023/03/07 04:06:42;;;;;;;9.27;4.80;;;4.00;99.90;;;;;;5093746;28;20114;-53
2023/03/07 04:09:08;;;;;;;9.50;5.60;;;4.10;99.90;;;;;;5093822;28;20037;-56
2023/03/07 04:11:38;;;;;;;10.03;5.67;;;4.10;99.90;;;;;;5093659;28;20024;-54
2023/03/07 04:14:03;;;;;;;10.00;6.43;;;4.00;99.90;;;;;;5093461;28;20034;-57
2023/03/07 04:16:29;;;;;;;13.43;7.60;;;4.00;99.90;;;;;;5111586;28;20081;-50
2023/03/07 04:18:56;;;;;;;13.80;7.73;;;4.00;99.90;;;;;;5093418;28;20047;-50
2023/03/07 04:21:22;;;;;;;15.13;8.80;;;4.00;99.90;;;;;;5093511;28;20024;-50
2023/03/07 04:23:54;;;;;;;13.70;7.73;;;4.00;99.90;;;;;;5093359;28;20363;-54
2023/03/07 04:26:20;;;;;;;11.90;6.80;;;4.00;99.90;;;;;;5093297;28;20039;-56
2023/03/07 04:28:48;;;;;;;10.33;6.10;;;4.10;99.90;;;;;;5093246;28;20028;-55
2023/03/07 04:31:23;;;;;;;11.17;6.47;;;4.10;99.90;;;;;;5093378;28;20055;-55
2023/03/07 04:33:50;;;;;;;11.37;6.80;;;4.10;99.90;;;;;;5093113;28;20035;-56
2023/03/07 04:36:16;;;;;;;11.17;6.60;;;4.10;99.90;;;;;;5093212;28;20031;-50
2023/03/07 04:38:43;;;;;;;11.30;7.40;;;4.20;99.90;;;;;;5111419;28;20023;-52
2023/03/07 04:41:14;;;;;;;15.10;9.20;;;4.20;99.90;;;;;;5111576;28;20391;-55
2023/03/07 04:43:40;;;;;;;15.57;9.17;;;4.20;99.90;;;;;;5092957;28;20024;-51
2023/03/07 04:46:07;;;;;;;13.40;8.43;;;4.20;99.90;;;;;;5093212;28;20038;-53
2023/03/07 04:48:34;;;;;;;15.93;9.63;;;4.20;99.90;;;;;;5064142;22;20048;-46
2023/03/07 04:51:00;;;;;;;16.33;9.73;;;4.20;99.90;;;;;;5013151;28;20033;-50
2023/03/07 04:53:26;;;;;;;18.20;10.23;;;4.20;99.90;;;;;;5012860;28;20394;-49
2023/03/07 04:55:59;;;;;;;16.23;9.03;;;4.20;99.90;;;;;;5013059;28;20029;-50
2023/03/07 04:58:29;;;;;;;14.97;9.90;;;4.20;99.90;;;;;;5040754;28;20425;-48
2023/03/07 05:00:58;;;;;;;14.40;9.40;;;4.20;99.90;;;;;;5032705;28;20025;-46
2023/03/07 05:03:26;;;;;;;14.50;8.83;;;4.20;99.90;;;;;;5032542;28;20021;-49
2023/03/07 05:05:52;;;;;;;16.03;9.30;;;4.10;99.90;;;;;;5032588;28;20116;-49
2023/03/07 05:08:19;;;;;;;16.13;9.73;;;4.20;99.90;;;;;;5032401;28;20029;-48
2023/03/07 05:10:46;;;;;;;16.37;9.73;;;4.20;99.90;;;;;;5032439;28;20025;-53
2023/03/07 05:13:12;;;;;;;15.47;9.57;;;4.20;99.90;;;;;;5032434;28;20061;-49
2023/03/07 05:15:38;;;;;;;16.70;10.20;;;4.20;99.90;;;;;;5032294;28;20037;-48
2023/03/07 05:18:05;;;;;;;16.47;9.97;;;4.20;99.90;;;;;;5032050;28;20035;-52
2023/03/07 05:20:32;;;;;;;18.77;9.93;;;4.20;99.90;;;;;;5032484;28;20040;-47
2023/03/07 05:22:58;;;;;;;17.40;10.53;;;4.10;99.90;;;;;;5032473;28;20029;-51
2023/03/07 05:25:24;;;;;;;18.10;10.73;;;4.10;99.90;;;;;;5032279;28;20295;-48
2023/03/07 05:27:50;;;;;;;17.53;10.73;;;4.10;99.90;;;;;;5032178;28;20039;-51
2023/03/07 05:30:16;;;;;;;18.33;11.33;;;4.00;99.90;;;;;;5050411;28;20108;-48
2023/03/07 05:32:42;;;;;;;16.57;10.80;;;4.10;99.90;;;;;;5032391;28;20033;-47
2023/03/07 05:35:11;;;;;;;18.20;11.47;;;4.10;99.90;;;;;;5032253;28;20080;-48
2023/03/07 05:37:37;;;;;;;16.93;10.63;;;4.10;99.90;;;;;;5032057;28;20040;-48
2023/03/07 05:40:08;;;;;;;17.83;11.30;;;4.10;99.90;;;;;;5032142;28;20025;-49
2023/03/07 05:42:34;;;;;;;18.97;10.07;;;4.10;99.90;;;;;;5032646;28;20025;-46
2023/03/07 05:45:00;;;;;;;18.13;11.70;;;4.10;99.90;;;;;;5049912;28;20431;-49
2023/03/07 05:47:25;;;;;;;17.73;11.17;;;4.10;99.90;;;;;;5049720;28;20032;-47
2023/03/07 05:49:51;;;;;;;21.80;11.90;;;4.10;99.90;;;;;;5032212;28;20028;-49
2023/03/07 05:52:19;;;;;;;18.13;11.17;;;4.10;99.90;;;;;;5032179;28;20397;-48
2023/03/07 05:54:45;;;;;;;18.53;10.60;;;4.10;99.90;;;;;;5031761;28;20078;-49
2023/03/07 05:57:11;;;;;;;21.73;11.83;;;4.10;99.90;;;;;;5031787;28;20029;-52
2023/03/07 05:59:38;;;;;;;17.57;10.37;;;4.10;99.90;;;;;;5032056;28;20033;-51
2023/03/07 06:02:05;;;;;;;14.63;9.13;;;4.10;99.90;;;;;;5032127;28;20021;-49
2023/03/07 06:04:30;;;;;;;19.20;10.07;;;4.10;99.90;;;;;;5031929;28;20048;-46
2023/03/07 06:06:56;;;;;;;15.37;9.33;;;4.10;99.90;;;;;;5031728;28;20033;-46
2023/03/07 06:09:24;;;;;;;15.60;9.63;;;4.20;99.90;;;;;;5031885;28;20032;-48
2023/03/07 06:11:51;;;;;;;15.00;9.33;;;4.10;99.90;;;;;;5031910;28;20024;-47
2023/03/07 06:14:16;;;;;;;17.17;9.43;;;4.10;99.90;;;;;;5031742;28;20054;-49
2023/03/07 06:16:43;;;;;;;16.70;9.60;;;4.20;99.90;;;;;;5031646;28;20025;-49
2023/03/07 06:19:09;;;;;;;16.87;9.70;;;4.10;99.90;;;;;;5031898;28;20037;-49
2023/03/07 06:21:35;;;;;;;18.03;9.83;;;4.10;99.90;;;;;;5031929;28;20029;-51
2023/03/07 06:24:00;;;;;;;17.10;9.43;;;4.10;99.90;;;;;;5032425;28;20036;-49
2023/03/07 06:26:26;;;;;;;14.93;8.93;;;4.10;99.90;;;;;;5053288;28;20412;-48
2023/03/07 06:28:54;;;;;;;19.00;9.47;;;4.10;99.90;;;;;;5035317;28;20056;-49
2023/03/07 06:31:21;;;;;;;16.10;9.40;;;4.10;99.90;;;;;;5035387;28;20536;-49
2023/03/07 06:33:47;;;;;;;16.53;9.20;;;4.20;99.90;;;;;;5035304;28;20409;-52
2023/03/07 06:36:16;;;;;;;18.50;10.20;;;4.10;99.90;;;;;;5035247;28;20435;-47
2023/03/07 06:38:46;;;;;;;16.07;10.33;;;4.20;99.90;;;;;;5035191;28;20028;-46
2023/03/07 06:41:12;;;;;;;20.00;11.33;;;4.20;99.90;;;;;;5053170;28;20443;-46
2023/03/07 06:43:38;;;;;;;19.47;11.43;;;4.20;99.90;;;;;;5034822;28;20570;-51
2023/03/07 06:46:05;;;;;;;17.73;10.23;;;4.20;99.90;;;;;;5035136;28;20179;-47
2023/03/07 06:48:34;;;;;;;19.10;10.95;;;4.20;99.90;;;;;;5034601;28;20485;-52
2023/03/07 06:51:06;;;;;;;20.60;11.43;;;4.20;99.90;;;;;;5035132;28;20390;-48
2023/03/07 06:53:32;;;;;;;17.90;9.37;;;4.20;99.90;;;;;;5034836;28;20159;-53
2023/03/07 06:55:58;;;;;;;20.27;11.13;;;4.20;99.90;;;;;;5034996;28;20033;-51
2023/03/07 06:58:24;;;;;;;18.40;10.27;;;4.20;99.90;;;;;;5034468;28;20040;-52
2023/03/07 07:00:50;;;;;;;18.70;9.77;;;4.20;99.90;;;;;;5034756;28;20436;-52
2023/03/07 07:03:18;;;;;;;18.50;10.67;;;4.30;99.90;;;;;;5034799;28;20043;-49
2023/03/07 07:05:44;;;;;;;16.03;9.50;;;4.20;99.90;;;;;;5052613;28;20035;-50
2023/03/07 07:08:09;;;;;;;17.00;10.03;;;4.30;99.90;;;;;;5034513;28;20104;-49
2023/03/07 07:10:35;;;;;;;15.33;9.23;;;4.20;99.90;;;;;;5034567;28;20493;-49
2023/03/07 07:13:04;;;;;;;18.67;10.73;;;4.30;99.90;;;;;;5034577;28;20033;-49
2023/03/07 07:15:31;;;;;;;18.60;10.33;;;4.30;99.90;;;;;;5034588;28;20033;-47
2023/03/07 07:17:58;;;;;;;19.67;10.17;;;4.30;99.90;;;;;;5034099;28;20080;-50
2023/03/07 07:20:24;;;;;;;17.87;9.90;;;4.30;99.90;;;;;;5052398;28;20017;-51
2023/03/07 07:22:51;;;;;;;18.47;9.77;;;4.30;99.90;;;;;;5034471;28;20493;-51
2023/03/07 07:25:16;;;;;;;16.97;9.80;;;4.40;99.90;;;;;;5052208;28;20021;-49
2023/03/07 07:27:42;;;;;;;18.50;10.63;;;4.40;99.90;;;;;;5034183;28;20501;-49
2023/03/07 07:30:09;;;;;;;19.20;10.30;;;4.40;99.90;;;;;;5034372;28;20136;-51
2023/03/07 07:32:35;;;;;;;18.60;10.87;;;4.30;99.90;;;;;;5034016;28;20375;-49
2023/03/07 07:35:03;;;;;;;20.73;10.63;;;4.30;99.90;;;;;;5033954;28;20029;-46
2023/03/07 07:37:30;;;;;;;17.80;10.20;;;4.30;99.90;;;;;;5033851;28;20033;-46
2023/03/07 07:39:55;;;;;;;20.87;11.57;;;4.30;99.90;;;;;;5051938;28;20025;-47
2023/03/07 07:42:21;;;;;;;20.43;11.30;;;4.30;99.90;;;;;;5051962;28;20021;-47
2023/03/07 07:44:59;;;;;;;20.10;9.73;;;4.30;99.90;;;;;;5033695;28;20036;-49
2023/03/07 07:47:25;;;;;;;17.70;10.70;;;4.40;99.90;;;;;;5033603;28;20394;-49
2023/03/07 07:49:51;;;;;;;19.17;10.50;;;4.40;99.90;;;;;;5033869;28;20035;-50
2023/03/07 07:52:17;;;;;;;20.13;10.73;;;4.40;99.90;;;;;;5033861;28;20115;-51
2023/03/07 07:54:43;;;;;;;25.30;11.53;;;4.40;99.90;;;;;;5033715;28;20212;-49
2023/03/07 07:57:09;;;;;;;18.40;10.10;;;4.40;99.90;;;;;;5033467;28;20025;-50
2023/03/07 07:59:35;;;;;;;20.17;11.60;;;4.50;99.90;;;;;;5033497;28;20094;-49
2023/03/07 08:02:01;;;;;;;22.13;12.00;;;4.50;99.90;;;;;;5033635;28;20021;-50
2023/03/07 08:04:27;;;;;;;35.07;19.07;;;4.50;99.90;;;;;;5051418;28;20029;-50
2023/03/07 08:06:53;;;;;;;19.77;11.00;;;4.50;99.90;;;;;;5051461;28;20401;-49
2023/03/07 08:09:19;;;;;;;22.40;11.43;;;4.50;99.90;;;;;;5051374;28;20033;-49
2023/03/07 08:11:45;;;;;;;20.87;11.47;;;4.50;99.90;;;;;;5051340;28;20536;-49
2023/03/07 08:14:11;;;;;;;20.80;12.50;;;4.50;99.90;;;;;;5050988;28;20083;-51
2023/03/07 08:16:36;;;;;;;19.90;11.43;;;4.50;99.90;;;;;;5051086;28;20035;-48
2023/03/07 08:19:02;;;;;;;21.33;11.67;;;4.50;99.90;;;;;;5051319;28;20485;-47
2023/03/07 08:21:29;;;;;;;21.97;11.17;;;4.50;99.90;;;;;;5051358;28;20119;-49
2023/03/07 08:23:55;;;;;;;19.10;11.27;;;4.50;99.90;;;;;;5051072;28;20075;-50
2023/03/07 08:26:22;;;;;;;19.40;10.03;;;4.50;99.90;;;;;;5050898;28;20112;-47
2023/03/07 08:28:47;;;;;;;19.57;10.83;;;4.50;99.90;;;;;;5050841;28;20021;-50
2023/03/07 08:31:19;;;;;;;19.83;12.00;;;4.40;99.90;;;;;;5051061;28;20056;-53
2023/03/07 08:33:46;;;;;;;21.43;11.20;;;4.40;99.90;;;;;;5051095;28;20078;-49
2023/03/07 08:36:12;;;;;;;17.27;9.73;;;4.40;99.90;;;;;;5050853;28;20029;-52
2023/03/07 08:38:37;;;;;;;17.90;10.50;;;4.40;99.90;;;;;;5050631;28;20036;-48
2023/03/07 08:41:05;;;;;;;19.87;10.93;;;4.40;99.90;;;;;;5050761;28;20112;-49
2023/03/07 08:43:32;;;;;;;19.33;10.30;;;4.40;99.90;;;;;;5050962;28;20074;-48
2023/03/07 08:45:58;;;;;;;18.60;9.80;;;4.40;99.90;;;;;;5050779;28;20029;-49
2023/03/07 08:48:25;;;;;;;17.17;8.63;;;4.40;99.90;;;;;;5050057;28;20040;-52
2023/03/07 08:50:51;;;;;;;16.37;9.73;;;4.40;99.90;;;;;;5050705;28;20028;-52
2023/03/07 08:53:17;;;;;;;16.03;9.43;;;4.40;99.90;;;;;;5050750;28;20071;-49
2023/03/07 08:55:43;;;;;;;13.30;7.90;;;4.40;99.90;;;;;;5050542;28;20033;-49
2023/03/07 08:58:09;;;;;;;10.37;6.50;;;4.30;99.90;;;;;;5050169;28;20028;-49
2023/03/07 09:00:36;;;;;;;10.13;5.63;;;4.00;99.90;;;;;;5050857;28;20100;-51
2023/03/07 09:03:02;;;;;;;9.87;5.30;;;3.80;99.90;;;;;;5032742;28;20127;-49
2023/03/07 09:05:28;;;;;;;11.83;5.43;;;3.60;99.90;;;;;;5050407;28;20125;-51
2023/03/07 09:07:54;;;;;;;7.40;4.37;;;3.50;99.90;;;;;;5050223;28;20040;-48
2023/03/07 09:10:21;;;;;;;7.60;4.30;;;3.40;99.90;;;;;;5050251;28;20033;-50
2023/03/07 09:12:49;;;;;;;8.43;4.00;;;3.30;99.90;;;;;;5050598;28;20124;-50
2023/03/07 09:15:16;;;;;;;9.48;4.18;;;3.20;99.90;;;;;;5050262;28;20068;-48
2023/03/07 09:17:42;;;;;;;7.97;3.80;;;3.10;99.90;;;;;;5050003;28;20033;-47
2023/03/07 09:20:09;;;;;;;10.53;4.50;;;3.10;99.90;;;;;;5050271;28;20087;-51
2023/03/07 09:22:34;;;;;;;7.10;3.63;;;3.00;99.90;;;;;;5050369;28;20025;-48
2023/03/07 09:25:00;;;;;;;9.27;4.07;;;3.10;99.90;;;;;;5049978;28;20452;-50
2023/03/07 09:27:26;;;;;;;7.23;3.20;;;3.10;99.90;;;;;;5050124;28;20116;-48
2023/03/07 09:29:52;;;;;;;5.97;3.13;;;3.20;99.90;;;;;;5050356;28;20055;-48
2023/03/07 09:32:18;;;;;;;7.47;3.60;;;3.10;99.90;;;;;;5050314;28;20037;-48
2023/03/07 09:34:43;;;;;;;5.57;3.10;;;3.10;99.90;;;;;;5049995;28;20035;-49
2023/03/07 09:37:09;;;;;;;4.17;2.60;;;3.10;99.90;;;;;;5049932;28;20513;-47
2023/03/07 09:39:35;;;;;;;4.30;2.67;;;3.00;99.90;;;;;;5050074;28;20111;-46
2023/03/07 09:42:22;;;;;;;6.50;3.40;;;3.00;99.90;;;;;;5050157;28;20108;-48
2023/03/07 09:45:06;;;;;;;9.13;4.60;;;3.00;99.90;;;;;;5032028;28;20397;-48
2023/03/07 09:48:09;;;;;;;7.13;4.40;;;3.00;99.90;;;;;;5031913;28;20443;-49
2023/03/07 09:50:46;;;;;;;12.13;5.53;;;2.90;99.90;;;;;;5050315;28;20124;-52
2023/03/07 09:53:21;;;;;;;5.53;3.47;;;3.00;99.90;;;;;;5050093;28;20119;-52
2023/03/07 09:55:50;;;;;;;6.13;2.80;;;3.10;99.90;;;;;;5050028;28;20029;-51
2023/03/07 09:58:22;;;;;;;4.47;2.40;;;3.00;99.90;;;;;;5049644;28;20112;-51
2023/03/07 10:00:56;;;;;;;4.73;2.73;;;3.00;99.90;;;;;;5053840;28;20064;-47
2023/03/07 10:03:43;;;;;;;6.47;2.87;;;3.00;99.90;;;;;;5053677;28;20040;-52
2023/03/07 10:06:26;;;;;;;5.93;3.57;;;3.00;99.90;;;;;;5053818;28;20025;-53
2023/03/07 10:08:53;;;;;;;6.33;3.13;;;2.90;99.90;;;;;;5053530;28;20033;-54
2023/03/07 10:12:04;;;;;;;5.50;3.13;;;3.00;99.90;;;;;;5053652;28;20099;-51
2023/03/07 10:15:02;;;;;;;5.00;3.07;;;2.80;99.90;;;;;;5048475;28;20094;-53
2023/03/07 10:17:40;;;;;;;4.53;2.70;;;2.80;99.90;;;;;;5036267;28;20091;-51
2023/03/07 10:20:41;;;;;;;5.97;3.20;;;2.80;99.90;;;;;;5053665;28;20082;-50
2023/03/07 10:23:52;;;;;;;6.57;3.20;;;2.80;99.90;;;;;;5031406;28;20409;-50
2023/03/07 10:26:31;;;;;;;6.00;2.90;;;2.70;99.90;;;;;;5053215;28;20029;-51
2023/03/07 10:29:00;;;;;;;6.32;2.30;;;2.70;99.90;;;;;;5053346;28;20112;-52
2023/03/07 10:31:35;;;;;;;4.32;2.38;;;2.70;99.90;;;;;;5053371;28;20025;-53
2023/03/07 10:34:13;;;;;;;4.53;2.37;;;2.80;99.90;;;;;;5053314;28;20036;-52
2023/03/07 10:36:43;;;;;;;4.50;2.53;;;2.80;99.90;;;;;;5053213;28;20083;-51
2023/03/07 10:39:42;;;;;;;8.77;2.77;;;2.80;99.90;;;;;;5053320;28;20492;-52
2023/03/07 10:42:11;;;;;;;4.72;2.97;;;2.90;99.90;;;;;;5052668;28;20047;-51
2023/03/07 10:44:38;;;;;;;8.38;3.80;;;2.90;99.90;;;;;;5053107;28;20040;-50
2023/03/07 10:47:04;;;;;;;5.63;3.37;;;2.90;99.90;;;;;;5052946;28;20033;-49
2023/03/07 10:49:38;;;;;;;5.70;3.17;;;2.80;99.90;;;;;;5081216;22;20068;-55
2023/03/07 10:52:30;;;;;;;5.43;3.10;;;2.70;99.90;;;;;;5073038;28;20035;-54
2023/03/07 10:55:28;;;;;;;8.07;4.40;;;2.80;99.90;;;;;;5072686;28;20028;-54
2023/03/07 10:58:10;;;;;;;5.90;3.40;;;2.90;99.90;;;;;;5075425;28;20110;-53
2023/03/07 11:00:36;;;;;;;5.20;3.23;;;3.00;99.90;;;;;;5092883;28;20383;-55
2023/03/07 11:03:02;;;;;;;9.30;3.90;;;3.20;99.90;;;;;;5092974;28;20024;-53
2023/03/07 11:05:32;;;;;;;7.40;3.70;;;3.20;99.90;;;;;;5092686;28;20024;-53
2023/03/07 11:07:59;;;;;;;5.63;3.47;;;3.30;99.90;;;;;;5092467;28;20036;-53
2023/03/07 11:10:31;;;;;;;5.87;3.27;;;3.40;99.90;;;;;;5092540;28;20028;-52
2023/03/07 11:12:56;;;;;;;9.27;4.80;;;3.30;99.90;;;;;;5092804;28;20116;-54
2023/03/07 11:15:23;;;;;;;8.33;3.90;;;3.20;99.90;;;;;;5092453;28;20122;-54
2023/03/07 11:17:50;;;;;;;7.13;3.30;;;3.20;99.90;;;;;;5092423;28;20053;-54
2023/03/07 11:20:25;;;;;;;5.03;2.87;;;3.10;99.90;;;;;;5092577;28;20044;-53
2023/03/07 11:23:17;;;;;;;5.27;3.00;;;3.10;99.90;;;;;;5092794;28;20355;-54
2023/03/07 11:25:43;;;;;;;6.50;3.57;;;3.00;99.90;;;;;;5092353;28;20024;-55
2023/03/07 11:28:31;;;;;;;5.80;3.03;;;3.00;99.90;;;;;;5092236;28;20071;-56
2023/03/07 11:31:05;;;;;;;5.87;3.80;;;3.00;99.90;;;;;;5092457;28;20109;-54
2023/03/07 11:33:53;;;;;;;9.23;5.03;;;3.00;99.90;;;;;;5092198;28;20508;-54
2023/03/07 11:36:29;;;;;;;8.73;5.00;;;3.10;99.90;;;;;;5092123;28;20111;-54
2023/03/07 11:39:24;;;;;;;8.47;5.03;;;3.10;99.90;;;;;;5092246;28;20024;-54
2023/03/07 11:41:57;;;;;;;6.73;3.70;;;3.10;99.90;;;;;;5092204;28;20028;-57
2023/03/07 11:44:53;;;;;;;7.13;3.30;;;3.20;99.90;;;;;;5091831;28;20053;-56
2023/03/07 11:47:34;;;;;;;7.37;3.50;;;3.20;99.90;;;;;;5083255;28;20051;-54
2023/03/07 11:50:21;;;;;;;5.77;3.30;;;3.10;99.90;;;;;;5092001;28;20032;-53
2023/03/07 11:52:56;;;;;;;5.90;2.63;;;3.10;99.90;;;;;;5091863;28;20078;-54
2023/03/07 11:56:05;;;;;;;8.97;3.10;;;3.10;99.90;;;;;;5091821;28;20046;-55
2023/03/07 11:58:48;;;;;;;4.35;2.35;;;3.20;99.90;;;;;;5008939;28;20037;-56
2023/03/07 12:01:33;;;;;;;5.50;2.90;;;3.20;99.90;;;;;;5084530;28;20044;-55
2023/03/07 12:04:10;;;;;;;6.73;3.90;;;3.20;99.90;;;;;;5091583;28;20476;-55
2023/03/07 12:06:57;;;;;;;5.27;3.17;;;3.10;99.90;;;;;;5091689;28;20024;-52
2023/03/07 12:09:23;;;;;;;6.50;3.50;;;3.10;99.90;;;;;;5091270;28;20070;-54
2023/03/07 12:12:47;;;;;;;6.27;3.33;;;3.10;99.90;;;;;;5091679;28;20063;-53
2023/03/07 12:15:21;;;;;;;4.83;2.80;;;3.10;99.90;;;;;;5008892;28;20038;-52
2023/03/07 12:18:16;;;;;;;6.30;2.40;;;3.30;99.90;;;;;;5078433;28;20093;-52
2023/03/07 12:21:09;;;;;;;7.60;3.43;;;3.20;99.90;;;;;;5091594;28;20028;-55
2023/03/07 12:24:02;;;;;;;4.70;2.90;;;3.20;99.90;;;;;;5090732;28;20384;-54
2023/03/07 12:26:56;;;;;;;6.23;3.23;;;3.20;99.90;;;;;;5091075;28;20369;-53
2023/03/07 12:29:49;;;;;;;9.50;3.93;;;3.20;99.90;;;;;;5091259;28;20368;-54
2023/03/07 12:32:20;;;;;;;6.60;3.50;;;3.30;99.90;;;;;;5091253;28;20031;-55
2023/03/07 12:34:58;;;;;;;6.83;3.23;;;3.20;99.90;;;;;;5090937;28;20024;-53
2023/03/07 12:37:26;;;;;;;6.20;2.77;;;3.20;99.90;;;;;;5090871;28;20031;-53
2023/03/07 12:40:17;;;;;;;6.10;3.00;;;3.10;99.90;;;;;;5091041;28;20539;-55
2023/03/07 12:42:47;;;;;;;5.63;2.53;;;3.10;99.90;;;;;;5090511;28;20491;-54
2023/03/07 12:45:20;;;;;;;6.00;2.80;;;3.00;99.90;;;;;;5090842;28;20019;-54
2023/03/07 12:48:15;;;;;;;6.30;2.87;;;3.00;99.90;;;;;;5090756;28;20384;-56
2023/03/07 12:51:24;;;;;;;6.80;2.80;;;3.10;99.90;;;;;;5090880;28;20036;-55
2023/03/07 12:54:02;;;;;;;5.13;2.05;;;3.00;99.90;;;;;;5090681;28;20028;-55
2023/03/07 12:56:54;;;;;;;5.43;2.60;;;3.00;99.90;;;;;;5090502;28;20430;-55
2023/03/07 12:59:21;;;;;;;6.50;3.20;;;3.00;99.90;;;;;;5090515;28;20396;-53
2023/03/07 13:01:52;;;;;;;5.30;2.60;;;3.00;99.90;;;;;;5090766;28;20044;-53
2023/03/07 13:04:31;;;;;;;6.70;2.93;;;3.10;99.90;;;;;;5090434;28;20037;-53
2023/03/07 13:07:32;;;;;;;6.77;2.60;;;3.10;99.90;;;;;;5090456;28;20039;-53
2023/03/07 13:09:59;;;;;;;37.50;9.37;;;3.10;99.90;;;;;;5073440;28;20072;-54